createdAt,value
2022-12-08T07:19:40.382Z,-1.83
2022-12-08T07:28:07.926Z,-1.74
2022-12-08T07:36:29.392Z,-1.74
2022-12-08T07:44:50.940Z,-1.73
2022-12-08T07:53:12.797Z,-1.61
2022-12-08T08:01:35.368Z,-1.44
2022-12-08T08:09:57.539Z,-1.22
2022-12-08T08:18:18.961Z,-0.95
2022-12-08T08:26:40.560Z,-0.74
2022-12-08T08:35:02.668Z,-0.63
2022-12-08T08:43:34.474Z,-0.52
2022-12-08T08:51:59.187Z,-0.38
2022-12-08T09:00:20.896Z,-0.32
2022-12-08T09:08:43.351Z,-0.29
2022-12-08T09:17:07.232Z,-0.20
2022-12-08T09:25:29.001Z,-0.02
2022-12-08T09:33:53.319Z,0.13
2022-12-08T09:42:33.121Z,0.28
2022-12-08T09:50:56.234Z,0.45
2022-12-08T09:59:20.828Z,0.62
2022-12-08T10:08:13.824Z,0.74
2022-12-08T10:16:39.894Z,0.74
2022-12-08T10:25:32.550Z,0.69
2022-12-08T10:33:58.794Z,0.60
2022-12-08T10:42:21.412Z,0.60
2022-12-08T10:50:51.909Z,0.73
2022-12-08T10:59:18.009Z,0.86
2022-12-08T11:07:47.289Z,0.88
2022-12-08T11:16:14.314Z,1.01
2022-12-08T11:24:37.850Z,1.25
2022-12-08T11:33:22.687Z,1.49
2022-12-08T11:41:46.021Z,1.70
2022-12-08T11:50:18.330Z,1.92
2022-12-08T11:58:46.545Z,2.04
2022-12-08T12:07:40.077Z,1.99
2022-12-08T12:16:39.699Z,1.85
2022-12-08T12:25:02.160Z,1.79
2022-12-08T12:33:24.810Z,1.74
2022-12-08T12:41:56.010Z,1.65
2022-12-08T12:50:32.948Z,1.57
2022-12-08T12:58:54.567Z,1.58
2022-12-08T13:07:29.328Z,1.64
2022-12-08T13:15:56.919Z,1.66
2022-12-08T13:24:24.539Z,1.69
2022-12-08T13:41:43.815Z,1.62
2022-12-08T13:51:23.590Z,1.62
2022-12-08T13:59:23.779Z,1.65
2022-12-08T14:07:47.744Z,1.64
2022-12-08T14:16:27.964Z,1.65
2022-12-08T14:24:52.261Z,1.68
2022-12-08T14:33:16.982Z,1.60
2022-12-08T14:41:40.154Z,1.47
2022-12-08T14:50:37.991Z,1.37
2022-12-08T14:59:02.608Z,1.33
2022-12-08T15:07:30.589Z,1.27
2022-12-08T15:15:57.183Z,1.19
2022-12-08T15:24:22.168Z,1.10
2022-12-08T15:32:44.009Z,0.94
2022-12-08T15:41:09.004Z,0.79
2022-12-08T15:49:33.067Z,0.71
2022-12-08T16:24:02.238Z,0.68
2022-12-08T16:32:28.319Z,0.75
2022-12-08T16:41:08.554Z,0.79
2022-12-08T16:49:30.094Z,0.77
2022-12-08T16:57:53.039Z,0.72
2022-12-08T17:06:18.622Z,0.75
2022-12-08T17:14:40.938Z,0.72
2022-12-08T17:23:02.607Z,0.62
2022-12-08T17:31:29.392Z,0.57
2022-12-08T17:39:51.515Z,0.55
2022-12-08T17:48:13.992Z,0.46
2022-12-08T17:56:35.440Z,0.37
2022-12-08T18:04:57.005Z,0.36
2022-12-08T18:13:18.862Z,0.32
2022-12-08T18:21:41.650Z,0.27
2022-12-08T18:30:04.404Z,0.27
2022-12-08T18:38:26.361Z,0.28
2022-12-08T18:46:50.305Z,0.34
2022-12-08T18:55:12.197Z,0.43
2022-12-08T19:03:33.724Z,0.48
2022-12-08T19:11:56.241Z,0.49
2022-12-08T19:20:17.873Z,0.55
2022-12-08T19:28:40.488Z,0.66
2022-12-08T19:37:01.954Z,0.73
2022-12-08T19:45:23.658Z,0.77
2022-12-08T19:53:47.818Z,0.83
2022-12-08T20:02:10.775Z,0.89
2022-12-08T20:10:35.649Z,0.87
2022-12-08T20:18:57.371Z,0.82
2022-12-08T20:27:18.863Z,0.83
2022-12-08T20:35:40.553Z,0.86
2022-12-08T20:44:05.385Z,0.86
2022-12-08T20:52:28.303Z,0.80
2022-12-08T21:00:50.239Z,0.78
2022-12-08T21:09:12.127Z,0.78
2022-12-08T21:17:33.956Z,0.72
2022-12-08T21:25:55.893Z,0.62
2022-12-08T21:34:17.640Z,0.60
2022-12-08T21:42:45.351Z,0.62
2022-12-08T21:51:07.305Z,0.60
2022-12-08T21:59:29.330Z,0.50
2022-12-08T22:07:50.997Z,0.47
2022-12-08T22:16:15.973Z,0.45
2022-12-08T22:24:37.923Z,0.35
2022-12-08T22:32:59.371Z,0.21
2022-12-08T22:41:22.154Z,0.17
2022-12-08T22:49:44.137Z,0.19
2022-12-08T22:58:05.790Z,0.13
2022-12-08T23:06:28.880Z,0.01
2022-12-08T23:14:50.504Z,-0.04
2022-12-08T23:23:12.539Z,0.00
2022-12-08T23:31:34.714Z,0.03
2022-12-08T23:39:56.240Z,0.03
2022-12-08T23:48:17.684Z,0.09
2022-12-08T23:56:40.792Z,0.19
